Terminal Aerodrome Forecast
Issued by NWS

Home | Current Version | Previous Version | Graphics & Text | Print | Product List | Glossary On
Versions: 1 2 3 4 5 6 7 8 9 10 11 12 13 14 15 16 17
000
FTUS43 KABR 302326
TAFPIR
TAF
KPIR 302326Z 0100/0124 04019G26KT P6SM VCSH OVC060
     FM010200 02009KT P6SM OVC080
     FM010800 35010KT P6SM SCT080=

USA.gov is the U.S. government's official web portal to all federal, state and local government web resources and services.